Time;durP1;ratioP1;P1;durP2;ratioP2;P2;SDS_P1;SDS_P2;PMS_P1;PMS_P2;Temp;Humidity;BMP_temperature;BMP_pressure;BME280_temperature;BME280_humidity;BME280_pressure;Samples;Min_cycle;Max_cycle;Signal;HPM_P1;HPM_P2
2022/03/11 00:00:09;;;;;;;15.02;11.90;;;3.20;73.60;;;;;;5113579;28;20644;-55
2022/03/11 00:02:36;;;;;;;15.63;11.45;;;3.10;73.70;;;;;;5113356;28;20215;-55
2022/03/11 00:05:04;;;;;;;14.00;11.15;;;3.10;74.10;;;;;;5113488;28;20208;-57
2022/03/11 00:07:31;;;;;;;15.20;11.00;;;3.10;74.30;;;;;;5113643;28;20203;-58
2022/03/11 00:09:58;;;;;;;16.75;11.63;;;3.10;74.20;;;;;;5113577;28;20706;-55
2022/03/11 00:12:26;;;;;;;17.17;11.40;;;3.00;74.20;;;;;;5113364;28;20223;-56
2022/03/11 00:14:54;;;;;;;15.40;12.55;;;3.00;74.40;;;;;;5113225;28;20200;-54
2022/03/11 00:17:21;;;;;;;15.60;11.63;;;3.00;74.40;;;;;;5113545;28;20210;-55
2022/03/11 00:19:48;;;;;;;16.92;11.70;;;2.90;74.50;;;;;;5113405;28;20203;-56
2022/03/11 00:22:16;;;;;;;15.40;11.35;;;2.90;74.70;;;;;;5113246;28;20224;-55
2022/03/11 00:24:43;;;;;;;14.63;11.45;;;2.90;74.80;;;;;;5114957;28;20196;-58
2022/03/11 00:27:10;;;;;;;15.23;11.25;;;2.90;75.00;;;;;;5117857;28;20207;-55
2022/03/11 00:29:37;;;;;;;16.20;11.68;;;2.80;75.10;;;;;;5117972;28;20199;-54
2022/03/11 00:32:06;;;;;;;13.10;10.07;;;2.80;75.30;;;;;;5118108;28;20228;-54
2022/03/11 00:34:34;;;;;;;15.60;12.20;;;2.80;75.50;;;;;;5118252;28;20223;-57
2022/03/11 00:37:01;;;;;;;17.60;13.10;;;2.70;75.80;;;;;;5117721;28;20615;-55
2022/03/11 00:39:29;;;;;;;15.48;11.43;;;2.70;76.20;;;;;;5117680;28;20210;-55
2022/03/11 00:41:56;;;;;;;19.08;12.13;;;2.60;76.20;;;;;;5117676;28;20252;-54
2022/03/11 00:44:23;;;;;;;17.45;11.35;;;2.60;76.30;;;;;;5117154;28;20262;-55
2022/03/11 00:46:51;;;;;;;14.85;11.43;;;2.60;76.60;;;;;;5118021;28;20206;-54
2022/03/11 00:49:19;;;;;;;16.90;12.65;;;2.50;76.80;;;;;;5117089;28;20681;-55
2022/03/11 00:51:46;;;;;;;17.00;11.65;;;2.50;77.20;;;;;;5117757;28;20255;-54
2022/03/11 00:54:13;;;;;;;16.95;10.95;;;2.40;77.40;;;;;;5117943;28;20223;-54
2022/03/11 00:56:40;;;;;;;13.23;9.88;;;2.40;77.50;;;;;;5118464;28;20557;-55
2022/03/11 00:59:08;;;;;;;19.23;11.38;;;2.40;77.80;;;;;;5117450;28;20203;-56
2022/03/11 01:01:35;;;;;;;18.33;12.18;;;2.30;78.20;;;;;;5117424;28;20200;-55
2022/03/11 01:04:02;;;;;;;14.85;11.70;;;2.30;78.30;;;;;;5117942;28;20570;-54
2022/03/11 01:06:30;;;;;;;16.17;12.10;;;2.30;79.40;;;;;;5118036;28;20207;-56
2022/03/11 01:08:57;;;;;;;15.82;12.23;;;2.20;79.00;;;;;;5118081;28;20203;-55
2022/03/11 01:11:24;;;;;;;14.15;10.23;;;2.20;79.30;;;;;;5116947;28;20582;-56
2022/03/11 01:13:52;;;;;;;17.52;10.82;;;2.10;79.40;;;;;;5117355;28;20215;-56
2022/03/11 01:16:19;;;;;;;18.30;12.55;;;2.10;79.60;;;;;;5117114;28;20226;-55
2022/03/11 01:18:46;;;;;;;15.05;10.88;;;2.10;79.80;;;;;;5116875;28;20219;-55
2022/03/11 01:21:13;;;;;;;16.45;11.20;;;2.10;80.00;;;;;;5116768;28;20678;-55
2022/03/11 01:23:41;;;;;;;14.05;10.38;;;2.00;80.10;;;;;;5116512;28;20230;-56
2022/03/11 01:26:10;;;;;;;15.65;10.70;;;2.00;80.20;;;;;;5117873;28;20566;-56
2022/03/11 01:28:39;;;;;;;14.23;10.93;;;2.00;80.30;;;;;;5117076;28;20203;-55
2022/03/11 01:31:06;;;;;;;14.85;10.30;;;1.90;80.30;;;;;;5116989;28;20206;-55
2022/03/11 01:33:33;;;;;;;17.75;10.68;;;1.90;80.50;;;;;;5117931;28;20220;-56
2022/03/11 01:36:00;;;;;;;15.60;10.85;;;1.90;80.70;;;;;;5116861;28;20203;-57
2022/03/11 01:38:27;;;;;;;14.63;10.93;;;1.90;80.80;;;;;;5118808;28;20199;-56
2022/03/11 01:40:56;;;;;;;14.20;10.25;;;1.90;80.80;;;;;;5118872;28;20195;-56
2022/03/11 01:43:23;;;;;;;15.68;10.75;;;1.80;81.40;;;;;;5119031;28;20223;-55
2022/03/11 01:45:50;;;;;;;13.55;10.48;;;1.80;80.80;;;;;;5118561;28;20203;-55
2022/03/11 01:48:17;;;;;;;14.25;10.85;;;1.80;80.70;;;;;;5118221;28;20196;-55
2022/03/11 01:50:44;;;;;;;13.18;10.68;;;1.80;80.60;;;;;;5118115;28;20691;-55
2022/03/11 01:53:14;;;;;;;17.25;10.48;;;1.80;80.40;;;;;;5119553;28;20230;-55
2022/03/11 01:55:41;;;;;;;12.02;9.50;;;1.80;80.40;;;;;;5118789;28;20203;-56
2022/03/11 01:58:11;;;;;;;14.00;9.57;;;1.80;80.20;;;;;;5116609;28;20235;-55
2022/03/11 02:00:40;;;;;;;14.35;9.50;;;1.70;79.90;;;;;;5117601;28;20199;-54
2022/03/11 02:03:07;;;;;;;14.45;9.85;;;1.70;79.80;;;;;;5117734;28;20227;-53
2022/03/11 02:05:34;;;;;;;13.35;8.85;;;1.70;79.50;;;;;;5116657;28;20200;-54
2022/03/11 02:08:02;;;;;;;12.18;9.38;;;1.70;79.20;;;;;;5116621;28;20203;-54
2022/03/11 02:10:30;;;;;;;12.73;9.20;;;1.70;79.00;;;;;;5116016;28;20291;-54
2022/03/11 02:12:58;;;;;;;10.75;9.40;;;1.70;79.00;;;;;;5115797;28;20227;-54
2022/03/11 02:15:27;;;;;;;12.38;9.18;;;1.70;79.00;;;;;;5115954;28;20230;-54
2022/03/11 02:17:54;;;;;;;11.55;8.93;;;1.60;78.80;;;;;;5115912;28;20308;-56
2022/03/11 02:20:21;;;;;;;11.57;8.68;;;1.60;79.20;;;;;;5115690;28;20203;-54
2022/03/11 02:22:52;;;;;;;13.23;9.32;;;1.60;79.40;;;;;;5115414;28;20715;-56
2022/03/11 02:25:20;;;;;;;12.98;8.93;;;1.50;79.40;;;;;;5116313;28;20176;-58
2022/03/11 02:27:47;;;;;;;10.40;8.15;;;1.50;79.90;;;;;;5115899;28;20597;-54
2022/03/11 02:30:17;;;;;;;13.20;8.55;;;1.50;80.00;;;;;;5115884;28;20230;-55
2022/03/11 02:32:44;;;;;;;12.13;9.20;;;1.40;79.80;;;;;;5115984;28;20220;-55
2022/03/11 02:35:13;;;;;;;12.77;9.30;;;1.40;80.10;;;;;;5116210;28;20215;-56
2022/03/11 02:37:40;;;;;;;14.23;8.82;;;1.30;80.30;;;;;;5115965;28;20207;-57
2022/03/11 02:40:08;;;;;;;13.15;9.73;;;1.30;80.50;;;;;;5115696;28;20199;-56
2022/03/11 02:42:36;;;;;;;12.07;9.32;;;1.30;80.90;;;;;;5115661;28;20227;-55
2022/03/11 02:45:05;;;;;;;12.05;9.60;;;1.30;81.10;;;;;;5115880;28;20200;-55
2022/03/11 02:47:33;;;;;;;12.48;9.40;;;1.20;81.00;;;;;;5114787;28;20202;-56
2022/03/11 02:50:00;;;;;;;13.98;9.35;;;1.20;81.00;;;;;;5115397;28;20196;-56
2022/03/11 02:52:28;;;;;;;14.52;9.40;;;1.20;80.90;;;;;;5115654;28;20226;-55
2022/03/11 02:54:56;;;;;;;12.15;8.75;;;1.10;81.10;;;;;;5115969;28;20215;-56
2022/03/11 02:57:23;;;;;;;24.25;9.82;;;1.10;81.10;;;;;;5115736;28;20667;-56
2022/03/11 02:59:51;;;;;;;12.85;9.10;;;1.10;81.40;;;;;;5115498;28;20577;-54
2022/03/11 03:02:19;;;;;;;11.50;9.20;;;1.10;81.40;;;;;;5114858;28;20711;-55
2022/03/11 03:04:46;;;;;;;10.50;8.38;;;1.00;81.30;;;;;;5115299;28;20241;-54
2022/03/11 03:07:13;;;;;;;12.63;9.43;;;1.00;81.30;;;;;;5115184;28;20204;-55
2022/03/11 03:09:41;;;;;;;14.45;8.90;;;1.00;81.40;;;;;;5115171;28;20206;-56
2022/03/11 03:12:10;;;;;;;12.30;8.68;;;0.90;81.50;;;;;;5114996;28;20223;-57
2022/03/11 03:14:37;;;;;;;13.02;9.50;;;0.90;81.60;;;;;;5114771;28;20740;-56
2022/03/11 03:17:06;;;;;;;16.88;9.20;;;0.90;81.60;;;;;;5115120;28;20214;-56
2022/03/11 03:19:35;;;;;;;14.30;8.50;;;0.90;81.70;;;;;;5114935;28;20219;-54
2022/03/11 03:22:03;;;;;;;13.25;8.82;;;0.90;81.60;;;;;;5114735;28;20711;-55
2022/03/11 03:24:31;;;;;;;14.15;9.45;;;0.90;81.80;;;;;;5114718;28;20181;-55
2022/03/11 03:26:58;;;;;;;13.25;9.65;;;0.90;81.60;;;;;;5114840;28;20203;-55
2022/03/11 03:29:25;;;;;;;11.48;9.35;;;0.90;81.50;;;;;;5116882;28;20212;-55
2022/03/11 03:31:57;;;;;;;12.50;9.57;;;0.90;81.60;;;;;;5116696;28;20224;-56
2022/03/11 03:34:28;;;;;;;12.35;8.55;;;0.80;81.70;;;;;;5117382;28;20237;-55
2022/03/11 03:36:56;;;;;;;13.80;9.43;;;0.80;81.70;;;;;;5116326;28;20233;-55
2022/03/11 03:39:23;;;;;;;16.83;9.48;;;0.80;81.70;;;;;;5115536;28;20200;-56
2022/03/11 03:41:50;;;;;;;11.93;8.88;;;0.80;81.70;;;;;;5114851;28;20253;-57
2022/03/11 03:44:17;;;;;;;14.60;9.18;;;0.80;81.80;;;;;;5114861;28;20191;-56
2022/03/11 03:46:45;;;;;;;11.43;8.90;;;0.80;81.80;;;;;;5114241;28;20214;-56
2022/03/11 03:49:12;;;;;;;11.88;8.15;;;0.70;81.80;;;;;;5114598;28;20210;-56
2022/03/11 03:51:40;;;;;;;14.13;8.55;;;0.70;82.00;;;;;;5114405;28;20199;-55
2022/03/11 03:54:09;;;;;;;13.73;9.60;;;0.70;82.10;;;;;;5113962;28;20242;-55
2022/03/11 03:56:37;;;;;;;16.13;9.52;;;0.70;82.20;;;;;;5113557;28;20202;-55
2022/03/11 03:59:04;;;;;;;11.38;8.13;;;0.70;82.30;;;;;;5113324;28;20199;-55
2022/03/11 04:01:33;;;;;;;13.70;9.38;;;0.70;82.40;;;;;;5113905;28;20207;-55
2022/03/11 04:04:00;;;;;;;11.07;8.25;;;0.60;82.40;;;;;;5114003;28;20231;-55
2022/03/11 04:09:26;;;;;;;12.70;9.35;;;0.60;81.90;;;;;;5132713;27;20572;-56
2022/03/11 04:11:53;;;;;;;12.13;9.43;;;0.60;82.20;;;;;;5131666;28;20229;-56
2022/03/11 04:14:20;;;;;;;12.60;9.90;;;0.60;82.10;;;;;;5131643;27;20195;-56
2022/03/11 04:16:47;;;;;;;11.55;8.55;;;0.60;82.20;;;;;;5131623;27;20579;-54
2022/03/11 04:19:14;;;;;;;12.63;9.55;;;0.60;82.50;;;;;;5131808;27;20234;-57
2022/03/11 04:21:41;;;;;;;12.05;9.77;;;0.60;82.50;;;;;;5102698;22;20232;-58
2022/03/11 04:24:13;;;;;;;12.75;9.05;;;0.50;82.60;;;;;;5071192;28;20227;-57
2022/03/11 04:26:43;;;;;;;13.57;9.90;;;0.50;82.70;;;;;;5070154;28;20280;-58
2022/03/11 04:29:10;;;;;;;11.35;8.05;;;0.50;82.90;;;;;;5070200;28;20209;-58
2022/03/11 04:31:38;;;;;;;16.33;9.48;;;0.40;83.00;;;;;;5069910;28;20735;-58
2022/03/11 04:34:05;;;;;;;13.07;9.52;;;0.40;83.20;;;;;;5069996;28;20208;-58
2022/03/11 04:36:35;;;;;;;11.88;8.57;;;0.40;83.50;;;;;;5069817;28;20197;-56
2022/03/11 04:39:04;;;;;;;17.40;10.07;;;0.30;83.50;;;;;;5069956;28;20186;-58
2022/03/11 04:41:31;;;;;;;12.32;9.75;;;0.30;83.70;;;;;;5069949;28;20248;-58
2022/03/11 04:43:59;;;;;;;13.68;9.05;;;0.30;83.80;;;;;;5069873;28;20208;-59
2022/03/11 04:46:26;;;;;;;14.05;9.10;;;0.30;83.90;;;;;;5069561;28;20205;-60
2022/03/11 04:48:53;;;;;;;16.30;10.20;;;0.30;84.10;;;;;;5069799;28;20228;-58
2022/03/11 04:51:22;;;;;;;12.73;9.25;;;0.30;84.20;;;;;;5069482;28;20217;-57
2022/03/11 04:53:49;;;;;;;12.23;9.20;;;0.20;84.20;;;;;;5069540;28;20240;-57
2022/03/11 04:56:16;;;;;;;17.50;10.18;;;0.20;84.40;;;;;;5069547;28;20204;-58
2022/03/11 04:58:43;;;;;;;13.65;9.93;;;0.20;84.60;;;;;;5069826;28;20224;-58
2022/03/11 05:01:12;;;;;;;16.25;10.15;;;0.20;84.70;;;;;;5069754;28;20248;-58
2022/03/11 05:03:39;;;;;;;12.60;8.65;;;0.20;84.80;;;;;;5069672;28;20206;-58
2022/03/11 05:06:06;;;;;;;15.38;11.57;;;0.20;84.70;;;;;;5069280;28;20197;-58
2022/03/11 05:08:33;;;;;;;15.00;9.77;;;0.10;84.80;;;;;;5069109;28;20224;-59
2022/03/11 05:11:00;;;;;;;15.30;9.63;;;0.10;84.90;;;;;;5069034;28;20660;-58
2022/03/11 05:13:27;;;;;;;14.02;10.15;;;0.10;85.00;;;;;;5069375;28;20569;-58
2022/03/11 05:15:54;;;;;;;14.05;10.15;;;0.10;85.00;;;;;;5069028;28;20197;-57
2022/03/11 05:18:22;;;;;;;13.85;9.60;;;0.10;85.00;;;;;;5069243;28;20229;-57
2022/03/11 05:20:50;;;;;;;14.50;9.27;;;0.10;85.10;;;;;;5055285;28;20241;-57
2022/03/11 05:23:17;;;;;;;13.07;9.10;;;0.10;85.10;;;;;;5055734;28;20205;-58
2022/03/11 05:25:44;;;;;;;17.80;10.30;;;0.00;85.00;;;;;;5055562;28;20197;-55
2022/03/11 05:28:11;;;;;;;13.30;9.38;;;0.00;84.90;;;;;;5056049;28;20697;-58
2022/03/11 05:30:38;;;;;;;15.48;10.45;;;0.00;85.60;;;;;;5055964;28;20232;-59
2022/03/11 05:33:06;;;;;;;14.13;10.15;;;0.00;84.90;;;;;;5055602;28;20208;-58
2022/03/11 05:35:35;;;;;;;12.90;8.77;;;0.10;84.90;;;;;;5055566;28;20213;-57
2022/03/11 05:38:02;;;;;;;12.63;9.27;;;0.10;84.70;;;;;;5055664;28;20204;-57
2022/03/11 05:40:29;;;;;;;13.30;8.95;;;0.10;84.50;;;;;;5055164;28;20229;-57
2022/03/11 05:42:56;;;;;;;16.52;10.38;;;0.00;84.60;;;;;;5055517;28;20206;-58
2022/03/11 05:45:23;;;;;;;14.50;10.07;;;0.00;84.50;;;;;;5055655;28;20208;-57
2022/03/11 05:47:50;;;;;;;16.50;10.65;;;0.00;84.50;;;;;;5055507;28;20248;-56
2022/03/11 05:50:18;;;;;;;14.73;10.20;;;-0.10;84.50;;;;;;5055041;28;20222;-57
2022/03/11 05:52:47;;;;;;;14.68;10.60;;;-0.10;84.60;;;;;;5055435;28;20225;-58
2022/03/11 05:55:14;;;;;;;17.90;10.15;;;-0.10;84.70;;;;;;5055251;28;20212;-57
2022/03/11 05:57:41;;;;;;;15.55;9.90;;;-0.10;84.80;;;;;;5056027;28;20213;-57
2022/03/11 06:00:09;;;;;;;14.18;9.90;;;-0.10;84.80;;;;;;5055704;28;20206;-56
2022/03/11 06:02:39;;;;;;;13.40;9.43;;;-0.10;84.70;;;;;;5055536;28;20206;-57
2022/03/11 06:05:09;;;;;;;10.98;8.10;;;0.00;84.80;;;;;;5056166;28;20233;-58
2022/03/11 06:07:37;;;;;;;10.80;9.45;;;0.00;84.50;;;;;;5056342;28;20339;-56
2022/03/11 06:10:06;;;;;;;13.45;8.88;;;0.10;84.30;;;;;;5056483;28;20229;-58
2022/03/11 06:12:34;;;;;;;16.50;9.75;;;0.10;84.20;;;;;;5055786;28;20684;-57
2022/03/11 06:15:01;;;;;;;16.98;10.43;;;0.10;83.80;;;;;;5055476;28;20202;-57
2022/03/11 06:17:28;;;;;;;15.00;9.05;;;0.10;83.30;;;;;;5055503;28;20208;-57
2022/03/11 06:19:55;;;;;;;13.43;9.57;;;0.10;82.90;;;;;;5055747;28;20204;-57
2022/03/11 06:22:22;;;;;;;13.30;9.20;;;0.10;82.80;;;;;;5054878;28;20300;-58
2022/03/11 06:24:49;;;;;;;16.23;9.65;;;0.20;82.50;;;;;;5055065;28;20703;-57
2022/03/11 06:27:18;;;;;;;12.57;8.80;;;0.20;82.30;;;;;;5055248;28;20577;-56
2022/03/11 06:29:46;;;;;;;12.10;9.40;;;0.20;81.80;;;;;;5055081;28;20673;-57
2022/03/11 06:32:13;;;;;;;15.18;10.15;;;0.30;81.50;;;;;;5053544;28;20229;-57
2022/03/11 06:34:41;;;;;;;13.05;9.10;;;0.30;80.90;;;;;;5054670;28;20205;-56
2022/03/11 06:37:08;;;;;;;14.05;9.50;;;0.40;80.70;;;;;;5054644;28;20201;-57
2022/03/11 06:39:35;;;;;;;14.63;9.40;;;0.50;80.00;;;;;;5054407;28;20240;-58
2022/03/11 06:42:02;;;;;;;14.65;9.02;;;0.50;79.50;;;;;;5054446;28;20225;-57
2022/03/11 06:44:31;;;;;;;12.38;9.13;;;0.60;78.90;;;;;;5054625;28;20212;-57
2022/03/11 06:46:58;;;;;;;13.90;9.02;;;0.60;78.50;;;;;;5054480;28;20232;-56
2022/03/11 06:49:26;;;;;;;11.68;9.23;;;0.70;78.30;;;;;;5054193;28;20221;-56
2022/03/11 06:51:53;;;;;;;12.27;9.45;;;0.70;77.40;;;;;;5053881;28;20577;-58
2022/03/11 06:54:20;;;;;;;13.93;9.50;;;0.80;77.20;;;;;;5054066;28;20197;-57
2022/03/11 06:56:47;;;;;;;10.77;9.23;;;0.80;76.20;;;;;;5053879;28;20198;-57
2022/03/11 06:59:14;;;;;;;13.98;9.57;;;0.90;75.40;;;;;;5053914;28;20193;-57
2022/03/11 07:01:44;;;;;;;19.80;9.90;;;1.00;75.20;;;;;;5053842;28;20224;-57
2022/03/11 07:04:11;;;;;;;16.83;8.85;;;1.00;74.50;;;;;;5053808;28;20205;-57
2022/03/11 07:06:38;;;;;;;15.13;8.75;;;1.10;73.70;;;;;;5053553;28;20202;-57
2022/03/11 07:09:05;;;;;;;11.80;8.75;;;1.20;73.20;;;;;;5053682;28;20214;-58
2022/03/11 07:11:32;;;;;;;11.27;8.07;;;1.20;72.20;;;;;;5053676;28;20304;-58
2022/03/11 07:14:01;;;;;;;14.80;9.10;;;1.30;71.20;;;;;;5053896;28;20628;-58
2022/03/11 07:16:29;;;;;;;11.98;8.75;;;1.30;70.30;;;;;;5053604;28;20271;-58
2022/03/11 07:18:57;;;;;;;11.57;8.15;;;1.40;69.60;;;;;;5053312;28;20243;-56
2022/03/11 07:21:24;;;;;;;13.93;8.63;;;1.50;68.40;;;;;;5053096;28;20609;-58
2022/03/11 07:23:56;;;;;;;16.08;9.30;;;1.50;67.70;;;;;;5053685;28;20703;-57
2022/03/11 07:26:23;;;;;;;13.88;9.50;;;1.60;67.30;;;;;;5053505;28;20190;-58
2022/03/11 07:28:50;;;;;;;10.70;7.90;;;1.70;66.80;;;;;;5053570;28;20225;-57
2022/03/11 07:31:17;;;;;;;14.13;9.73;;;1.90;66.30;;;;;;5053635;28;20225;-57
2022/03/11 07:33:44;;;;;;;11.85;9.63;;;2.00;65.60;;;;;;5054175;28;20232;-58
2022/03/11 07:36:13;;;;;;;9.50;7.50;;;2.10;64.80;;;;;;5053473;28;20205;-58
2022/03/11 07:38:40;;;;;;;10.27;8.05;;;2.10;63.90;;;;;;5053631;28;20289;-55
2022/03/11 07:41:10;;;;;;;13.10;8.30;;;2.20;63.20;;;;;;5053767;28;20221;-57
2022/03/11 07:43:41;;;;;;;12.55;9.35;;;2.30;62.40;;;;;;5054845;28;20317;-57
2022/03/11 07:46:10;;;;;;;13.65;8.95;;;2.40;61.80;;;;;;5055260;28;20197;-58
2022/03/11 07:48:37;;;;;;;13.77;9.15;;;2.40;60.70;;;;;;5055957;28;20222;-57
2022/03/11 07:51:04;;;;;;;13.52;9.10;;;2.50;59.70;;;;;;5056145;28;20225;-58
2022/03/11 07:53:33;;;;;;;9.15;7.82;;;2.50;58.90;;;;;;5053652;28;20288;-58
2022/03/11 07:56:00;;;;;;;14.50;9.02;;;2.50;58.40;;;;;;5053286;28;20205;-58
2022/03/11 07:58:27;;;;;;;10.98;8.85;;;2.60;57.70;;;;;;5053852;28;20213;-58
2022/03/11 08:00:54;;;;;;;12.48;7.15;;;2.60;57.10;;;;;;5053495;28;20228;-58
2022/03/11 08:03:22;;;;;;;14.27;8.60;;;2.70;56.70;;;;;;5053102;28;20596;-58
2022/03/11 08:05:50;;;;;;;13.88;8.52;;;2.70;56.10;;;;;;5053094;28;20205;-56
2022/03/11 08:08:18;;;;;;;14.07;9.50;;;2.80;56.10;;;;;;5052695;28;20208;-59
2022/03/11 08:10:46;;;;;;;13.63;8.32;;;2.90;55.70;;;;;;5052773;28;20705;-60
2022/03/11 08:13:14;;;;;;;13.77;8.48;;;3.00;55.40;;;;;;5052882;28;20210;-59
2022/03/11 08:15:41;;;;;;;13.43;7.90;;;3.00;55.00;;;;;;5052413;28;20248;-58
2022/03/11 08:18:08;;;;;;;14.02;8.32;;;3.10;54.30;;;;;;5052869;28;20214;-58
2022/03/11 08:20:35;;;;;;;13.57;8.75;;;3.20;54.00;;;;;;5052369;28;20319;-58
2022/03/11 08:23:03;;;;;;;11.25;8.57;;;3.30;53.60;;;;;;5052982;28;20189;-57
2022/03/11 08:25:30;;;;;;;13.05;8.75;;;3.40;53.40;;;;;;5053079;28;20208;-57
2022/03/11 08:27:59;;;;;;;13.13;9.00;;;3.50;53.10;;;;;;5052655;28;20294;-57
2022/03/11 08:30:26;;;;;;;10.80;8.13;;;3.70;52.80;;;;;;5053134;28;20225;-58
2022/03/11 08:32:55;;;;;;;14.18;8.40;;;3.70;52.30;;;;;;5053019;28;20198;-57
2022/03/11 08:35:23;;;;;;;10.55;8.00;;;3.80;51.90;;;;;;5052965;28;20755;-57
2022/03/11 08:37:51;;;;;;;10.77;8.10;;;3.90;51.50;;;;;;5052956;28;20205;-57
2022/03/11 08:40:22;;;;;;;11.20;7.50;;;4.00;51.00;;;;;;5052880;28;20313;-57
2022/03/11 08:42:49;;;;;;;15.40;8.30;;;4.10;50.70;;;;;;5052758;28;20186;-57
2022/03/11 08:45:20;;;;;;;11.48;8.15;;;4.10;49.90;;;;;;5053037;28;20205;-57
2022/03/11 08:47:47;;;;;;;10.90;7.65;;;4.20;49.10;;;;;;5052607;28;20563;-57
2022/03/11 08:50:14;;;;;;;10.90;7.22;;;4.20;48.80;;;;;;5052470;28;20283;-57
2022/03/11 08:52:42;;;;;;;13.32;8.73;;;4.20;48.40;;;;;;5052861;28;20206;-57
2022/03/11 08:55:10;;;;;;;13.82;8.60;;;4.20;47.80;;;;;;5054388;28;20674;-57
2022/03/11 08:57:37;;;;;;;12.10;8.57;;;4.20;47.80;;;;;;5056262;28;20674;-57
2022/03/11 09:00:05;;;;;;;13.05;8.63;;;4.40;47.90;;;;;;5056226;28;20202;-58
2022/03/11 09:02:37;;;;;;;10.90;7.63;;;4.50;47.70;;;;;;5056385;28;20205;-58
2022/03/11 09:05:05;;;;;;;11.40;7.65;;;4.60;47.00;;;;;;5056434;28;20598;-58
2022/03/11 09:07:32;;;;;;;9.98;7.30;;;4.70;46.70;;;;;;5056220;28;20206;-58
2022/03/11 09:09:59;;;;;;;15.43;8.18;;;4.70;46.70;;;;;;5056315;28;20308;-58
2022/03/11 09:12:27;;;;;;;8.27;7.20;;;4.80;46.50;;;;;;5056076;28;20616;-58
2022/03/11 09:14:54;;;;;;;10.77;7.40;;;4.90;45.90;;;;;;5056635;28;20197;-58
2022/03/11 09:17:22;;;;;;;12.63;8.40;;;4.90;45.50;;;;;;5056923;28;20586;-56
2022/03/11 09:19:50;;;;;;;12.23;7.75;;;4.90;45.30;;;;;;5056354;28;20322;-57
2022/03/11 09:22:19;;;;;;;8.63;6.90;;;5.00;44.90;;;;;;5056515;28;20213;-56
2022/03/11 09:24:47;;;;;;;12.75;7.25;;;5.00;44.20;;;;;;5056610;28;20212;-56
2022/03/11 09:27:16;;;;;;;9.85;7.50;;;5.10;44.00;;;;;;5056320;28;20213;-56
2022/03/11 09:29:43;;;;;;;12.10;9.00;;;5.10;43.70;;;;;;5056504;28;20548;-56
2022/03/11 09:32:10;;;;;;;14.25;8.48;;;5.20;43.60;;;;;;5056339;28;20229;-56
2022/03/11 09:34:40;;;;;;;9.55;6.90;;;5.30;43.30;;;;;;5055577;28;20221;-57
2022/03/11 09:37:09;;;;;;;13.77;8.57;;;5.30;42.50;;;;;;5055973;28;20208;-56
2022/03/11 09:39:36;;;;;;;12.48;7.25;;;5.30;42.00;;;;;;5056016;28;20544;-58
2022/03/11 09:42:03;;;;;;;9.63;6.80;;;5.30;41.80;;;;;;5055456;28;20225;-57
2022/03/11 09:44:31;;;;;;;10.73;6.97;;;5.40;41.80;;;;;;5055177;28;20201;-57
2022/03/11 09:46:58;;;;;;;9.88;6.95;;;5.50;41.80;;;;;;5055550;28;20198;-57
2022/03/11 09:49:26;;;;;;;14.52;8.00;;;5.60;41.40;;;;;;5054960;28;20218;-57
2022/03/11 09:51:53;;;;;;;11.48;7.10;;;5.70;41.40;;;;;;5054790;28;20218;-58
2022/03/11 09:54:22;;;;;;;11.23;7.82;;;5.90;41.30;;;;;;5054841;28;20212;-55
2022/03/11 09:56:49;;;;;;;12.23;7.70;;;6.00;41.10;;;;;;5054831;28;20202;-57
2022/03/11 09:59:16;;;;;;;12.13;7.38;;;6.00;40.80;;;;;;5054852;28;20198;-57
2022/03/11 10:01:44;;;;;;;8.02;6.32;;;6.20;40.80;;;;;;5055211;28;20225;-58
2022/03/11 10:04:11;;;;;;;10.10;7.10;;;6.30;40.70;;;;;;5055391;28;20205;-59
2022/03/11 10:06:39;;;;;;;13.25;7.82;;;6.40;40.30;;;;;;5054482;28;20205;-58
2022/03/11 10:09:07;;;;;;;11.85;7.13;;;6.50;39.80;;;;;;5056274;28;20205;-58
2022/03/11 10:11:37;;;;;;;9.82;7.10;;;6.50;39.30;;;;;;5055258;28;20226;-58
2022/03/11 10:14:08;;;;;;;8.32;6.43;;;6.50;39.20;;;;;;5055232;28;20202;-58
2022/03/11 10:16:37;;;;;;;10.65;6.97;;;6.50;39.30;;;;;;5054747;28;20225;-58
2022/03/11 10:19:06;;;;;;;9.77;7.47;;;6.60;39.10;;;;;;5054950;28;20204;-58
2022/03/11 10:21:34;;;;;;;8.25;6.78;;;6.70;38.90;;;;;;5088663;22;20229;-55
2022/03/11 10:24:03;;;;;;;9.07;7.45;;;6.70;38.30;;;;;;5055823;28;20186;-54
2022/03/11 10:26:32;;;;;;;17.33;8.50;;;6.60;38.00;;;;;;5054991;28;20201;-53
2022/03/11 10:29:02;;;;;;;11.40;7.53;;;6.70;38.20;;;;;;5055154;28;20209;-54
2022/03/11 10:31:33;;;;;;;13.30;6.70;;;6.80;38.00;;;;;;5055189;28;20233;-55
2022/03/11 10:34:18;;;;;;;12.80;6.90;;;6.80;37.90;;;;;;5055033;28;20206;-55
2022/03/11 10:36:51;;;;;;;10.98;6.78;;;6.90;37.90;;;;;;5054796;28;20208;-55
2022/03/11 10:39:19;;;;;;;10.45;6.70;;;7.00;37.90;;;;;;5055155;28;20201;-54
2022/03/11 10:41:49;;;;;;;8.50;6.93;;;7.10;37.70;;;;;;5055365;28;20248;-54
2022/03/11 10:44:22;;;;;;;13.95;7.00;;;7.10;37.10;;;;;;5055015;28;20232;-55
2022/03/11 10:46:49;;;;;;;7.60;6.55;;;7.20;37.10;;;;;;5054510;28;20222;-55
2022/03/11 10:49:31;;;;;;;9.50;7.20;;;7.20;37.10;;;;;;5054586;28;20623;-55
2022/03/11 10:52:00;;;;;;;11.82;6.72;;;7.40;37.00;;;;;;5053853;28;20221;-54
2022/03/11 10:54:29;;;;;;;9.60;6.97;;;7.40;36.20;;;;;;5054376;28;20198;-55
2022/03/11 10:57:07;;;;;;;11.88;7.53;;;7.40;36.00;;;;;;5053720;28;20204;-55
2022/03/11 10:59:36;;;;;;;11.45;7.75;;;7.50;36.00;;;;;;5054069;28;20182;-55
2022/03/11 11:02:04;;;;;;;11.82;7.63;;;7.50;35.60;;;;;;5054129;28;20249;-55
2022/03/11 11:04:31;;;;;;;12.02;6.82;;;7.60;35.40;;;;;;5054884;28;20347;-55
2022/03/11 11:06:58;;;;;;;8.68;6.28;;;7.70;35.30;;;;;;5053935;28;20198;-57
2022/03/11 11:09:26;;;;;;;8.73;5.90;;;7.70;34.90;;;;;;5053753;28;20319;-55
2022/03/11 11:11:53;;;;;;;15.75;7.10;;;7.80;34.90;;;;;;5053517;28;20253;-56
2022/03/11 11:14:20;;;;;;;12.00;7.15;;;7.90;35.50;;;;;;5054318;28;20204;-55
2022/03/11 11:16:50;;;;;;;7.50;6.45;;;8.10;35.00;;;;;;5053311;28;20210;-57
2022/03/11 11:19:19;;;;;;;8.30;7.50;;;8.10;33.80;;;;;;5054604;28;20301;-55
2022/03/11 11:21:48;;;;;;;10.13;7.10;;;8.10;33.40;;;;;;5053679;28;20238;-57
2022/03/11 11:24:17;;;;;;;8.82;5.93;;;8.10;33.60;;;;;;5054170;28;20205;-56
2022/03/11 11:26:47;;;;;;;10.02;7.43;;;8.10;33.30;;;;;;5053650;28;20205;-56
2022/03/11 11:29:18;;;;;;;7.40;6.47;;;8.20;33.20;;;;;;5053410;28;20573;-57
2022/03/11 11:31:46;;;;;;;8.15;6.40;;;8.20;33.10;;;;;;5053474;28;20222;-57
2022/03/11 11:34:33;;;;;;;10.65;6.00;;;8.30;33.30;;;;;;5053647;28;20205;-57
2022/03/11 11:37:01;;;;;;;12.25;6.32;;;8.40;33.30;;;;;;5053103;28;20634;-55
2022/03/11 11:39:36;;;;;;;9.82;7.68;;;8.40;32.20;;;;;;5052367;28;20198;-57
2022/03/11 11:42:09;;;;;;;11.45;6.65;;;8.40;32.00;;;;;;5053284;28;20819;-57
2022/03/11 11:44:37;;;;;;;12.05;6.30;;;8.40;32.10;;;;;;5053221;28;20189;-56
2022/03/11 11:47:10;;;;;;;8.50;7.07;;;8.50;32.30;;;;;;5053453;28;20202;-55
2022/03/11 11:49:44;;;;;;;8.18;6.22;;;8.60;32.30;;;;;;5053646;28;20185;-57
2022/03/11 11:52:12;;;;;;;13.93;6.78;;;8.60;32.20;;;;;;5054116;28;20221;-56
2022/03/11 11:54:44;;;;;;;10.82;6.70;;;8.70;32.20;;;;;;5054239;28;20270;-56
2022/03/11 11:57:37;;;;;;;9.40;7.05;;;8.80;31.80;;;;;;5053923;28;20220;-56
2022/03/11 12:00:30;;;;;;;12.75;6.85;;;8.80;31.70;;;;;;5053311;28;20193;-54
2022/03/11 12:02:58;;;;;;;9.10;6.53;;;8.90;31.60;;;;;;5053058;28;20237;-55
2022/03/11 12:05:54;;;;;;;10.57;7.20;;;9.00;31.40;;;;;;5052643;28;20205;-56
2022/03/11 12:08:47;;;;;;;10.98;7.40;;;9.00;31.00;;;;;;5052630;28;20193;-57
2022/03/11 12:11:42;;;;;;;11.13;6.75;;;9.00;30.90;;;;;;5053590;28;20230;-56
2022/03/11 12:14:09;;;;;;;10.80;6.45;;;9.00;31.20;;;;;;5053199;28;20297;-57
2022/03/11 12:17:05;;;;;;;11.23;7.57;;;9.10;31.20;;;;;;5053167;28;20274;-55
2022/03/11 12:19:40;;;;;;;8.90;5.70;;;9.10;31.10;;;;;;5052605;28;20240;-56
2022/03/11 12:22:30;;;;;;;13.75;8.07;;;9.20;30.90;;;;;;5052503;28;20239;-55
2022/03/11 12:24:59;;;;;;;9.23;6.85;;;9.20;30.80;;;;;;5052536;28;20190;-57
2022/03/11 12:28:01;;;;;;;8.45;6.95;;;9.10;30.40;;;;;;5052880;28;20206;-57
2022/03/11 12:30:29;;;;;;;13.30;6.22;;;9.10;30.50;;;;;;5055637;28;20221;-57
2022/03/11 12:32:59;;;;;;;13.68;7.30;;;9.10;30.40;;;;;;5056822;28;20221;-55
2022/03/11 12:35:26;;;;;;;11.95;7.43;;;9.20;30.60;;;;;;5057336;28;20722;-57
2022/03/11 12:37:55;;;;;;;8.50;7.22;;;9.20;30.70;;;;;;5057147;28;20202;-56
2022/03/11 12:40:23;;;;;;;15.57;8.10;;;9.40;30.90;;;;;;5056734;28;20193;-60
2022/03/11 12:42:57;;;;;;;10.17;7.30;;;9.40;30.80;;;;;;5056644;28;20252;-56
2022/03/11 12:45:31;;;;;;;9.60;7.83;;;9.50;30.90;;;;;;5056376;28;20432;-57
2022/03/11 12:47:59;;;;;;;13.93;7.05;;;9.50;30.60;;;;;;5056290;28;20443;-56
2022/03/11 12:50:26;;;;;;;9.20;6.97;;;9.50;30.40;;;;;;5056121;28;20225;-57
2022/03/11 12:52:57;;;;;;;11.27;6.50;;;9.50;30.50;;;;;;5055830;28;20521;-55
2022/03/11 12:55:26;;;;;;;6.53;5.90;;;9.50;30.30;;;;;;5056638;28;20912;-55